createdAt,value
2023-02-09T00:02:08.003Z,-4.03
2023-02-09T00:04:35.119Z,-3.68
2023-02-09T00:07:02.187Z,-3.75
2023-02-09T00:09:29.103Z,-3.97
2023-02-09T00:12:14.208Z,-3.68
2023-02-09T00:14:40.916Z,-3.70
2023-02-09T00:17:08.860Z,-4.01
2023-02-09T00:19:35.537Z,-3.96
2023-02-09T00:22:02.277Z,-4.25
2023-02-09T00:24:28.975Z,-3.64
2023-02-09T00:26:55.659Z,-3.81
2023-02-09T00:29:24.116Z,-3.97
2023-02-09T00:31:51.311Z,-4.15
2023-02-09T00:34:18.184Z,-5.27
2023-02-09T00:36:44.851Z,-5.66
2023-02-09T00:39:11.536Z,-6.25
2023-02-09T00:41:56.706Z,-5.37
2023-02-09T00:44:23.431Z,-5.08
2023-02-09T00:46:50.161Z,-4.99
2023-02-09T00:49:16.856Z,-4.51
2023-02-09T00:51:43.499Z,-4.55
2023-02-09T00:54:10.185Z,-4.33
2023-02-09T00:56:36.865Z,-4.25
2023-02-09T00:59:03.554Z,-4.44
2023-02-09T01:01:30.239Z,-4.64
2023-02-09T01:03:56.970Z,-4.51
2023-02-09T01:06:23.632Z,-4.51
2023-02-09T01:08:51.079Z,-4.56
2023-02-09T01:11:17.853Z,-4.72
2023-02-09T01:13:44.584Z,-4.44
2023-02-09T01:16:12.705Z,-3.97
2023-02-09T01:18:39.370Z,-3.99
2023-02-09T01:21:12.886Z,-4.29
2023-02-09T01:23:39.572Z,-4.28
2023-02-09T01:26:07.504Z,-4.73
2023-02-09T01:28:34.246Z,-4.60
2023-02-09T01:31:00.984Z,-4.59
2023-02-09T01:33:27.700Z,-4.26
2023-02-09T01:36:00.020Z,-4.76
2023-02-09T01:38:26.719Z,-4.90
2023-02-09T01:40:53.376Z,-4.75
2023-02-09T01:43:20.137Z,-4.51
2023-02-09T01:45:47.725Z,-4.17
2023-02-09T01:48:14.583Z,-4.01
2023-02-09T01:50:41.835Z,-3.93
2023-02-09T01:53:08.543Z,-4.12
2023-02-09T01:55:36.542Z,-4.30
2023-02-09T01:58:10.853Z,-3.91
2023-02-09T02:03:20.757Z,-4.43
2023-02-09T02:05:48.121Z,-4.15
2023-02-09T02:08:28.536Z,-4.49
2023-02-09T02:10:55.203Z,-4.60
2023-02-09T02:13:21.884Z,-4.53
2023-02-09T02:15:58.084Z,-4.53
2023-02-09T02:18:31.037Z,-4.44
2023-02-09T02:21:10.056Z,-4.33
2023-02-09T02:23:36.999Z,-4.10
2023-02-09T02:26:15.691Z,-4.10
2023-02-09T02:28:43.019Z,-4.61
2023-02-09T02:31:09.761Z,-4.33
2023-02-09T02:33:43.393Z,-4.34
2023-02-09T02:36:13.130Z,-4.18
2023-02-09T02:38:46.606Z,-4.37
2023-02-09T02:41:18.204Z,-4.53
2023-02-09T02:43:50.459Z,-5.04
2023-02-09T02:46:20.380Z,-4.47
2023-02-09T02:48:49.040Z,-4.89
2023-02-09T02:51:25.236Z,-4.86
2023-02-09T02:53:53.391Z,-5.04
2023-02-09T02:56:21.078Z,-5.55
2023-02-09T02:58:48.213Z,-5.11
2023-02-09T03:01:15.418Z,-4.81
2023-02-09T03:03:42.212Z,-5.00
2023-02-09T03:06:08.889Z,-5.08
2023-02-09T03:08:54.300Z,-4.94
2023-02-09T03:11:22.229Z,-5.03
2023-02-09T03:13:58.888Z,-4.89
2023-02-09T03:16:45.240Z,-4.64
2023-02-09T03:19:11.877Z,-4.78
2023-02-09T03:21:57.180Z,-5.08
2023-02-09T03:24:31.840Z,-5.49
2023-02-09T03:27:04.770Z,-5.59
2023-02-09T03:29:31.493Z,-5.26
2023-02-09T03:31:58.283Z,-5.11
2023-02-09T03:34:24.997Z,-4.61
2023-02-09T03:36:52.989Z,-4.60
2023-02-09T03:39:20.169Z,-4.70
2023-02-09T03:41:46.854Z,-4.86
2023-02-09T03:44:28.892Z,-5.34
2023-02-09T03:47:06.425Z,-4.94
2023-02-09T03:49:34.234Z,-5.24
2023-02-09T03:52:01.198Z,-5.15
2023-02-09T03:54:31.440Z,-5.44
2023-02-09T03:56:58.268Z,-4.99
2023-02-09T03:59:27.617Z,-5.36
2023-02-09T04:01:55.007Z,-5.29
2023-02-09T04:04:21.852Z,-5.48
2023-02-09T04:06:48.514Z,-4.91
2023-02-09T04:09:15.332Z,-5.08
2023-02-09T04:11:42.028Z,-5.29
2023-02-09T04:14:11.533Z,-5.64
2023-02-09T04:16:38.294Z,-5.24
2023-02-09T04:19:05.123Z,-5.19
2023-02-09T04:21:31.983Z,-5.27
2023-02-09T04:23:58.663Z,-4.84
2023-02-09T04:26:25.305Z,-4.97
2023-02-09T04:28:51.999Z,-4.97
2023-02-09T04:31:18.780Z,-4.66
2023-02-09T04:33:45.554Z,-4.88
2023-02-09T04:36:12.478Z,-5.49
2023-02-09T04:38:39.170Z,-5.79
2023-02-09T04:41:05.954Z,-6.16
2023-02-09T04:43:32.644Z,-5.97
2023-02-09T04:45:59.557Z,-5.63
2023-02-09T04:48:26.881Z,-6.16
2023-02-09T04:50:53.599Z,-6.14
2023-02-09T04:53:20.494Z,-5.69
2023-02-09T04:55:47.612Z,-5.36
2023-02-09T04:58:34.271Z,-5.24
2023-02-09T05:01:01.126Z,-5.53
2023-02-09T05:03:28.055Z,-5.77
2023-02-09T05:05:57.704Z,-5.45
2023-02-09T05:08:24.734Z,-5.51
2023-02-09T05:10:51.747Z,-5.40
2023-02-09T05:13:18.858Z,-5.66
2023-02-09T05:15:45.528Z,-5.88
2023-02-09T05:18:12.205Z,-5.68
2023-02-09T05:20:38.948Z,-5.14
2023-02-09T05:23:05.591Z,-4.60
2023-02-09T05:25:32.305Z,-4.96
2023-02-09T05:27:59.069Z,-4.86
2023-02-09T05:30:26.811Z,-5.06
2023-02-09T05:32:53.868Z,-5.20
2023-02-09T05:35:20.613Z,-5.24
2023-02-09T05:37:47.314Z,-5.49
2023-02-09T05:40:14.055Z,-5.44
2023-02-09T05:42:41.169Z,-5.77
2023-02-09T05:45:08.040Z,-5.49
2023-02-09T05:47:34.680Z,-5.64
2023-02-09T05:50:01.915Z,-5.88
2023-02-09T05:52:28.679Z,-6.08
2023-02-09T05:54:55.326Z,-5.82
2023-02-09T05:57:21.967Z,-5.01
2023-02-09T05:59:48.645Z,-5.46
2023-02-09T06:02:15.363Z,-5.59
2023-02-09T06:04:42.081Z,-5.84
2023-02-09T06:07:11.625Z,-6.18
2023-02-09T06:09:38.713Z,-5.60
2023-02-09T06:12:05.456Z,-5.95
2023-02-09T06:14:32.109Z,-6.00
2023-02-09T06:16:58.865Z,-5.87
2023-02-09T06:19:25.502Z,-6.12
2023-02-09T06:21:52.178Z,-5.44
2023-02-09T06:24:18.846Z,-5.08
2023-02-09T06:26:45.525Z,-4.99
2023-02-09T06:29:12.212Z,-4.64
2023-02-09T06:31:39.058Z,-4.70
2023-02-09T06:34:05.998Z,-4.97
2023-02-09T06:36:32.772Z,-4.92
2023-02-09T06:38:59.469Z,-4.58
2023-02-09T06:41:26.125Z,-4.73
2023-02-09T06:43:52.759Z,-4.64
2023-02-09T06:46:19.525Z,-4.39
2023-02-09T06:48:46.263Z,-4.21
2023-02-09T06:51:13.994Z,-4.14
2023-02-09T06:53:41.041Z,-3.70
2023-02-09T06:56:07.902Z,-3.06
2023-02-09T06:58:34.680Z,-2.53
2023-02-09T07:01:02.122Z,-1.92
2023-02-09T07:03:28.775Z,-1.23
2023-02-09T07:05:55.442Z,-0.74
2023-02-09T07:08:22.159Z,0.79
2023-02-09T07:10:48.826Z,1.82
2023-02-09T07:13:15.463Z,2.18
2023-02-09T07:15:42.131Z,2.74
2023-02-09T07:18:08.825Z,3.84
2023-02-09T07:20:35.480Z,3.07
2023-02-09T07:23:02.211Z,3.60
2023-02-09T07:25:28.903Z,3.47
2023-02-09T07:27:55.578Z,4.02
2023-02-09T07:30:22.297Z,3.75
2023-02-09T07:32:48.977Z,2.90
2023-02-09T07:35:15.685Z,2.39
2023-02-09T07:37:42.410Z,2.01
2023-02-09T07:40:09.495Z,2.79
2023-02-09T07:42:36.271Z,2.53
2023-02-09T07:45:03.033Z,2.79
2023-02-09T07:47:29.698Z,3.53
2023-02-09T07:49:56.356Z,3.07
2023-02-09T07:52:23.000Z,2.32
2023-02-09T07:54:50.601Z,1.66
2023-02-09T07:57:17.270Z,1.31
2023-02-09T07:59:43.937Z,1.29
2023-02-09T08:02:14.076Z,1.39
2023-02-09T08:04:40.780Z,1.38
2023-02-09T08:07:07.464Z,0.79
2023-02-09T08:09:34.142Z,0.51
2023-02-09T08:12:02.846Z,1.21
2023-02-09T08:14:43.094Z,2.11
2023-02-09T08:17:23.280Z,2.12
2023-02-09T08:19:59.700Z,2.00
2023-02-09T08:22:27.770Z,2.78
2023-02-09T08:24:54.458Z,2.26
2023-02-09T08:27:21.096Z,2.86
2023-02-09T08:29:49.029Z,3.43
2023-02-09T08:32:15.911Z,3.30
2023-02-09T08:34:42.632Z,3.39
2023-02-09T08:37:09.293Z,2.60
2023-02-09T08:39:35.972Z,2.41
2023-02-09T08:42:02.650Z,2.36
2023-02-09T08:44:29.326Z,1.13
2023-02-09T08:46:56.143Z,1.45
2023-02-09T08:49:22.896Z,2.24
2023-02-09T08:51:49.589Z,2.04
2023-02-09T08:54:16.413Z,2.45
2023-02-09T08:56:44.322Z,2.60
2023-02-09T08:59:11.117Z,2.25
2023-02-09T09:01:40.638Z,3.74
2023-02-09T09:04:07.564Z,4.06
2023-02-09T09:06:34.344Z,3.69
2023-02-09T09:09:01.121Z,2.74
2023-02-09T09:11:28.354Z,3.15
2023-02-09T09:13:55.033Z,2.58
2023-02-09T09:16:22.424Z,2.17
2023-02-09T09:18:49.169Z,2.49
2023-02-09T09:21:16.928Z,2.45
2023-02-09T09:23:43.855Z,2.40
2023-02-09T09:26:10.609Z,2.79
2023-02-09T09:28:37.345Z,2.94
2023-02-09T09:31:07.512Z,3.15
2023-02-09T09:33:34.328Z,2.90
2023-02-09T09:36:01.495Z,3.62
2023-02-09T09:38:28.251Z,4.15
2023-02-09T09:40:54.989Z,4.47
2023-02-09T09:43:26.082Z,4.62
2023-02-09T09:45:52.751Z,4.06
2023-02-09T09:48:24.346Z,3.30
2023-02-09T09:50:51.628Z,4.45
2023-02-09T09:53:19.186Z,4.98
2023-02-09T09:55:45.884Z,5.20
2023-02-09T09:58:15.833Z,4.61
2023-02-09T10:00:42.519Z,4.40
2023-02-09T10:03:16.016Z,4.35
2023-02-09T10:05:43.242Z,3.85
2023-02-09T10:08:10.027Z,4.45
2023-02-09T10:10:46.985Z,4.62
2023-02-09T10:13:16.565Z,4.55
2023-02-09T10:15:45.679Z,4.70
2023-02-09T10:18:13.746Z,5.24
2023-02-09T10:20:45.552Z,4.51
2023-02-09T10:23:19.108Z,4.80
2023-02-09T10:25:53.545Z,5.26
2023-02-09T10:28:24.039Z,5.21
2023-02-09T10:30:51.343Z,6.14
2023-02-09T10:33:18.109Z,5.31
2023-02-09T10:35:46.697Z,4.90
2023-02-09T10:38:17.469Z,5.56
2023-02-09T10:40:44.207Z,5.21
2023-02-09T10:43:26.847Z,6.05
2023-02-09T10:45:57.544Z,5.61
2023-02-09T10:48:25.263Z,5.59
2023-02-09T10:50:55.911Z,5.80
2023-02-09T10:53:29.846Z,5.68
2023-02-09T10:56:02.862Z,5.67
2023-02-09T10:58:30.977Z,5.80
2023-02-09T11:01:09.861Z,5.41
2023-02-09T11:03:37.237Z,5.33
2023-02-09T11:06:04.061Z,4.77
2023-02-09T11:08:49.208Z,5.39
2023-02-09T11:11:21.707Z,5.56
2023-02-09T11:13:48.438Z,5.47
2023-02-09T11:16:27.556Z,5.93
2023-02-09T11:19:01.967Z,5.70
2023-02-09T11:21:47.085Z,5.38
2023-02-09T11:24:20.028Z,5.24
2023-02-09T11:27:01.441Z,5.38
2023-02-09T11:29:51.453Z,5.49
2023-02-09T11:32:23.564Z,5.47
2023-02-09T11:34:50.187Z,6.05
2023-02-09T11:37:24.752Z,5.86
2023-02-09T11:39:51.420Z,5.54
2023-02-09T11:42:40.624Z,5.55
2023-02-09T11:45:08.968Z,4.97
2023-02-09T11:47:38.957Z,5.18
2023-02-09T11:50:06.184Z,4.88
2023-02-09T11:52:49.193Z,4.40
2023-02-09T11:55:29.769Z,4.94
2023-02-09T11:57:59.313Z,4.72
2023-02-09T12:00:27.080Z,4.37
2023-02-09T12:03:01.193Z,4.44
2023-02-09T12:05:27.960Z,4.48
2023-02-09T12:07:54.628Z,4.40
2023-02-09T12:10:39.710Z,4.56
2023-02-09T12:13:09.412Z,4.60
2023-02-09T12:15:43.069Z,4.82
2023-02-09T12:18:14.809Z,4.20
2023-02-09T12:20:41.439Z,4.75
2023-02-09T12:23:11.002Z,4.52
2023-02-09T12:25:46.019Z,4.23
2023-02-09T12:28:28.202Z,4.58
2023-02-09T12:30:58.653Z,4.45
2023-02-09T12:33:25.378Z,4.25
2023-02-09T12:36:10.240Z,4.41
2023-02-09T12:38:49.535Z,4.60
2023-02-09T12:41:18.167Z,4.48
2023-02-09T12:43:48.068Z,4.50
2023-02-09T12:46:24.108Z,4.72
2023-02-09T12:48:54.023Z,4.27
2023-02-09T12:51:37.779Z,4.18
2023-02-09T12:54:23.289Z,4.21
2023-02-09T12:56:49.946Z,4.15
2023-02-09T12:59:17.924Z,4.27
2023-02-09T13:02:03.269Z,4.06
2023-02-09T13:04:37.530Z,4.32
2023-02-09T13:07:05.165Z,4.77
2023-02-09T13:09:38.840Z,4.53
2023-02-09T13:12:14.706Z,4.29
2023-02-09T13:14:44.707Z,4.44
2023-02-09T13:17:20.932Z,4.21
2023-02-09T13:19:50.735Z,4.44
2023-02-09T13:22:23.224Z,4.30
2023-02-09T13:24:59.028Z,4.21
2023-02-09T13:27:26.413Z,4.46
2023-02-09T13:29:54.546Z,4.34
2023-02-09T13:32:29.743Z,4.39
2023-02-09T13:35:09.164Z,4.14
2023-02-09T13:37:41.931Z,4.15
2023-02-09T13:40:23.867Z,4.40
2023-02-09T13:42:53.579Z,4.26
2023-02-09T13:45:20.506Z,4.57
2023-02-09T13:47:47.288Z,4.62
2023-02-09T13:50:15.194Z,4.45
2023-02-09T13:52:42.899Z,4.17
2023-02-09T13:55:09.553Z,4.02
2023-02-09T13:57:36.809Z,3.84
2023-02-09T14:00:15.827Z,4.06
2023-02-09T14:02:44.015Z,4.19
2023-02-09T14:05:10.754Z,3.63
2023-02-09T14:07:37.437Z,3.97
2023-02-09T14:10:11.696Z,3.49
2023-02-09T14:12:56.018Z,3.78
2023-02-09T14:15:50.271Z,3.83
2023-02-09T14:18:24.243Z,3.91
2023-02-09T14:21:11.940Z,3.68
2023-02-09T14:23:39.032Z,3.86
2023-02-09T14:26:07.242Z,3.90
2023-02-09T14:28:34.915Z,3.77
2023-02-09T14:31:01.662Z,3.76
2023-02-09T14:33:29.072Z,3.48
2023-02-09T14:35:56.766Z,3.82
2023-02-09T14:38:39.092Z,3.37
2023-02-09T14:41:38.319Z,3.28
2023-02-09T14:44:07.723Z,3.47
2023-02-09T14:46:47.747Z,3.53
2023-02-09T14:49:14.464Z,3.18
2023-02-09T14:51:41.603Z,3.12
2023-02-09T14:54:24.916Z,3.09
2023-02-09T14:56:52.232Z,3.36
2023-02-09T14:59:19.078Z,2.92
2023-02-09T15:01:46.346Z,3.19
2023-02-09T15:04:13.069Z,3.54
2023-02-09T15:06:40.345Z,3.79
2023-02-09T15:09:07.180Z,3.26
2023-02-09T15:11:52.644Z,3.19
2023-02-09T15:14:20.369Z,3.10
2023-02-09T15:16:47.036Z,3.18
2023-02-09T15:19:14.435Z,3.00
2023-02-09T15:21:41.077Z,3.30
2023-02-09T15:24:07.761Z,2.79
2023-02-09T15:26:34.964Z,2.82
2023-02-09T15:29:01.677Z,2.84
2023-02-09T15:31:28.948Z,2.71
2023-02-09T15:33:55.647Z,2.86
2023-02-09T15:36:22.364Z,2.89
2023-02-09T15:38:49.158Z,2.71
2023-02-09T15:41:36.231Z,3.04
2023-02-09T15:44:23.735Z,3.17
2023-02-09T15:47:09.076Z,2.96
2023-02-09T15:49:35.740Z,3.24
2023-02-09T15:52:02.411Z,3.14
2023-02-09T15:54:30.321Z,3.28
2023-02-09T15:56:57.064Z,3.12
2023-02-09T15:59:23.938Z,2.82
2023-02-09T16:01:52.068Z,2.75
2023-02-09T16:04:19.000Z,2.49
2023-02-09T16:06:46.764Z,2.95
2023-02-09T16:09:17.794Z,2.71
2023-02-09T16:11:44.469Z,2.45
2023-02-09T16:14:15.921Z,2.28
2023-02-09T16:16:44.259Z,2.21
2023-02-09T16:19:10.954Z,2.19
2023-02-09T16:21:37.737Z,2.66
2023-02-09T16:24:05.355Z,2.21
2023-02-09T16:26:32.413Z,2.25
2023-02-09T16:28:59.136Z,2.22
2023-02-09T16:31:25.887Z,2.48
2023-02-09T16:33:52.640Z,2.21
2023-02-09T16:36:20.180Z,1.95
2023-02-09T16:38:46.896Z,2.02
2023-02-09T16:41:32.923Z,2.07
2023-02-09T16:44:00.126Z,1.97
2023-02-09T16:46:27.993Z,1.95
2023-02-09T16:48:54.661Z,1.84
2023-02-09T16:51:21.332Z,1.96
2023-02-09T16:53:49.090Z,1.81
2023-02-09T16:56:15.807Z,1.74
2023-02-09T16:58:43.115Z,1.64
2023-02-09T17:01:12.138Z,1.52
2023-02-09T17:03:41.930Z,1.40
2023-02-09T17:06:27.327Z,1.43
2023-02-09T17:08:56.564Z,1.43
2023-02-09T17:11:24.588Z,1.32
2023-02-09T17:13:51.308Z,1.13
2023-02-09T17:16:19.321Z,1.14
2023-02-09T17:18:46.104Z,1.26
2023-02-09T17:21:26.073Z,1.09
2023-02-09T17:23:52.942Z,1.38
2023-02-09T17:26:19.888Z,0.73
2023-02-09T17:28:46.830Z,0.52
2023-02-09T17:31:15.819Z,0.75
2023-02-09T17:33:42.524Z,1.13
2023-02-09T17:36:27.520Z,1.22
2023-02-09T17:38:59.009Z,1.20
2023-02-09T17:41:34.784Z,0.96
2023-02-09T17:44:17.476Z,0.61
2023-02-09T17:46:46.196Z,0.68
2023-02-09T17:49:12.871Z,0.23
2023-02-09T17:51:40.465Z,0.23
2023-02-09T17:54:10.402Z,0.19
2023-02-09T17:56:37.151Z,0.18
2023-02-09T17:59:08.308Z,0.19
2023-02-09T18:01:42.171Z,0.40
2023-02-09T18:04:10.356Z,0.48
2023-02-09T18:06:37.822Z,0.35
2023-02-09T18:09:05.758Z,0.18
2023-02-09T18:11:44.664Z,-0.68
2023-02-09T18:14:15.143Z,-0.44
2023-02-09T18:16:42.845Z,-0.11
2023-02-09T18:19:10.250Z,-0.26
2023-02-09T18:21:36.953Z,-0.49
2023-02-09T18:24:03.831Z,-0.53
2023-02-09T18:26:30.687Z,-0.55
2023-02-09T18:28:57.455Z,-0.83
2023-02-09T18:31:24.098Z,-0.55
2023-02-09T18:33:50.723Z,-0.88
2023-02-09T18:36:17.393Z,-1.61
2023-02-09T18:38:44.066Z,-1.11
2023-02-09T18:41:12.137Z,-1.30
2023-02-09T18:43:39.121Z,-1.20
2023-02-09T18:46:05.945Z,-1.18
2023-02-09T18:48:32.762Z,-1.03
2023-02-09T18:50:59.415Z,-1.21
2023-02-09T18:53:26.145Z,-1.12
2023-02-09T18:55:53.117Z,-1.05
2023-02-09T18:58:19.807Z,-0.91
2023-02-09T19:00:46.552Z,-0.74
2023-02-09T19:03:13.441Z,-0.70
2023-02-09T19:05:40.127Z,-0.82
2023-02-09T19:08:07.560Z,-1.09
2023-02-09T19:10:36.105Z,-1.17
2023-02-09T19:13:03.239Z,-0.98
2023-02-09T19:15:30.490Z,-1.27
2023-02-09T19:17:57.268Z,-1.11
2023-02-09T19:20:26.493Z,-0.62
2023-02-09T19:22:53.244Z,-0.70
2023-02-09T19:25:20.257Z,-0.95
2023-02-09T19:27:46.966Z,-1.38
2023-02-09T19:30:14.255Z,-1.29
2023-02-09T19:32:40.954Z,-1.65
2023-02-09T19:35:07.798Z,-1.25
2023-02-09T19:37:34.748Z,-1.70
2023-02-09T19:40:05.224Z,-1.47
2023-02-09T19:42:32.243Z,-1.51
2023-02-09T19:44:58.991Z,-1.73
2023-02-09T19:47:27.490Z,-1.63
2023-02-09T19:50:00.567Z,-1.60
2023-02-09T19:52:27.636Z,-1.66
2023-02-09T19:54:55.996Z,-1.62
2023-02-09T19:57:24.002Z,-0.71
2023-02-09T19:59:50.665Z,-0.95
2023-02-09T20:02:17.371Z,-1.28
2023-02-09T20:04:45.970Z,-1.28
2023-02-09T20:07:13.147Z,-1.25
2023-02-09T20:09:39.857Z,-1.75
2023-02-09T20:12:06.625Z,-2.19
2023-02-09T20:14:33.656Z,-1.97
2023-02-09T20:17:00.638Z,-2.01
2023-02-09T20:19:27.693Z,-1.72
2023-02-09T20:21:54.333Z,-1.63
2023-02-09T20:24:21.012Z,-1.65
2023-02-09T20:26:48.331Z,-1.79
2023-02-09T20:29:16.905Z,-2.37
2023-02-09T20:31:43.745Z,-2.90
2023-02-09T20:34:12.405Z,-1.77
2023-02-09T20:36:39.703Z,-1.81
2023-02-09T20:39:06.874Z,-2.10
2023-02-09T20:41:33.646Z,-1.50
2023-02-09T20:44:18.881Z,-1.31
2023-02-09T20:46:57.431Z,-1.28
2023-02-09T20:49:26.041Z,-1.43
2023-02-09T20:51:52.719Z,-1.52
2023-02-09T20:54:19.381Z,-2.53
2023-02-09T20:56:46.089Z,-2.04
2023-02-09T20:59:13.742Z,-2.19
2023-02-09T21:01:40.409Z,-2.17
2023-02-09T21:04:07.741Z,-2.09
2023-02-09T21:06:37.522Z,-2.11
2023-02-09T21:09:07.514Z,-2.21
2023-02-09T21:11:34.290Z,-2.64
2023-02-09T21:14:03.776Z,-2.36
2023-02-09T21:16:31.031Z,-2.54
2023-02-09T21:18:58.144Z,-2.13
2023-02-09T21:21:26.348Z,-2.54
2023-02-09T21:23:53.385Z,-2.63
2023-02-09T21:26:22.726Z,-2.32
2023-02-09T21:28:51.452Z,-2.77
2023-02-09T21:31:19.455Z,-2.99
2023-02-09T21:33:46.278Z,-3.05
2023-02-09T21:36:13.001Z,-2.57
2023-02-09T21:38:42.820Z,-2.37
2023-02-09T21:41:30.298Z,-2.43
2023-02-09T21:43:57.283Z,-2.46
2023-02-09T21:46:25.040Z,-2.85
2023-02-09T21:48:52.075Z,-2.82
2023-02-09T21:51:18.817Z,-2.44
2023-02-09T21:53:45.469Z,-2.24
2023-02-09T21:56:12.141Z,-2.60
2023-02-09T21:58:38.823Z,-2.72
2023-02-09T22:01:05.583Z,-2.72
2023-02-09T22:03:32.342Z,-2.67
2023-02-09T22:06:02.220Z,-3.12
2023-02-09T22:08:28.955Z,-3.86
2023-02-09T22:10:55.819Z,-3.89
2023-02-09T22:13:22.518Z,-3.87
2023-02-09T22:15:49.215Z,-4.01
2023-02-09T22:18:15.907Z,-3.83
2023-02-09T22:20:43.215Z,-3.31
2023-02-09T22:23:10.131Z,-3.49
2023-02-09T22:25:36.864Z,-3.38
2023-02-09T22:28:04.173Z,-3.45
2023-02-09T22:30:30.914Z,-3.05
2023-02-09T22:32:57.660Z,-3.56
2023-02-09T22:35:24.317Z,-2.85
2023-02-09T22:37:50.984Z,-3.51
2023-02-09T22:40:17.680Z,-3.38
2023-02-09T22:42:44.410Z,-2.92
2023-02-09T22:45:11.163Z,-2.55
2023-02-09T22:47:39.713Z,-3.11
2023-02-09T22:50:07.032Z,-2.97
2023-02-09T22:52:33.776Z,-2.81
2023-02-09T22:55:00.438Z,-2.96
2023-02-09T22:57:27.207Z,-3.44
2023-02-09T22:59:53.877Z,-4.06
2023-02-09T23:02:20.533Z,-3.75
2023-02-09T23:04:47.187Z,-3.63
2023-02-09T23:07:13.825Z,-3.46
2023-02-09T23:09:40.555Z,-3.53
2023-02-09T23:12:07.235Z,-3.29
2023-02-09T23:14:33.908Z,-3.11
2023-02-09T23:17:00.704Z,-3.58
2023-02-09T23:19:27.408Z,-3.39
2023-02-09T23:21:54.098Z,-3.17
2023-02-09T23:24:24.882Z,-3.06
2023-02-09T23:26:51.712Z,-2.87
2023-02-09T23:29:18.709Z,-3.24
2023-02-09T23:31:45.610Z,-3.60
2023-02-09T23:34:13.724Z,-3.30
2023-02-09T23:36:40.404Z,-3.24
2023-02-09T23:39:07.115Z,-3.21
2023-02-09T23:41:34.300Z,-3.14
2023-02-09T23:44:01.037Z,-3.57
2023-02-09T23:46:28.906Z,-3.37
2023-02-09T23:48:55.931Z,-3.26
2023-02-09T23:51:26.860Z,-3.20
2023-02-09T23:53:53.882Z,-3.11
2023-02-09T23:56:20.639Z,-3.23
2023-02-09T23:58:47.940Z,-3.03
